Hauptseite
METAR-TAF:

METAR-TAF

Flughäfen :

Flughafen Lahr

Lahr, Deutschland

Breite: 48-22-09N, Länge: 007-49-40E, Höhe: 156 m

Beobachtung

Neuester Wetterbericht von vor 18 Minuten, um 09:20 UTC
Wind 8 kt aus Südwest
Temperatur 16°C
Luftfeuchtigkeit 72%
Luftdruck 1010 hPa
Sichtweite 10 km oder mehr
Leicht bewölkt in der Höhe von 3000 ft
Aufgelockert bewölkt in der Höhe von 4000 ft

METAR: EDTL 240920Z 22008KT 9999 FEW030 SCT040 16/11 Q1010

Zeit: 11:38 (09:38 UTC)

Prognose

Neuester Wetterbericht von vor 1 Stunde und 38 Minuten, um 08:00 UTC
Gültige Prognose vom 24 um 09 UTC bis 24 um 18 UTC
Wind 9 kt aus Südwest
Sichtweite 10 km oder mehr
Leicht bewölkt in der Höhe von 4000 ft
Übergehend zu
vom 24 um 15 UTC bis 24 um 17 UTC
Wind 6 kt aus Nordwest

TAF: EDTL 240800Z 2409/2418 23009KT 9999 FEW040 BECMG 2415/2417 31006KT

Wetterbeobachtungen und Prognosen von mehr als 4000 Flughäfen (METAR und TAF Bericht).

Die verfügbaren Stationen werden durch gelbe und rote Markierungen auf der Karte dargestellt.

Führen Sie die Maus auf sie, um den Namen der Station zu sehen.

Darauf klicken, um die Beobachtung von Wetterbeobachtungen und Prognosen zu sehen.

Um die Karte zu ändern : klicken Sie auf den grünen Tasten mit einem schwarzen Kreuz Zum Vergrößern, auf den grünen Button mit einem Gedankenstrich zu verkleinern, oder auf die grünen Pfeile für benachbarte Karten.


METAR-TAF: